createdAt,value
2023-04-13T00:01:49.808Z,99823.13
2023-04-13T00:06:03.426Z,99824.09
2023-04-13T00:10:21.574Z,99818.03
2023-04-13T00:14:34.344Z,99823.34
2023-04-13T00:18:46.901Z,99822.44
2023-04-13T00:22:59.339Z,99819.22
2023-04-13T00:27:12.407Z,99809.72
2023-04-13T00:31:25.139Z,99811.75
2023-04-13T00:35:37.821Z,99805.81
2023-04-13T00:39:50.554Z,99813.75
2023-04-13T00:44:03.056Z,99811.94
2023-04-13T00:48:16.240Z,99810.09
2023-04-13T00:52:29.702Z,99810.19
2023-04-13T00:56:43.162Z,99804.97
2023-04-13T01:00:55.743Z,99812.13
2023-04-13T01:05:09.026Z,99805.88
2023-04-13T01:09:35.505Z,99819.88
2023-04-13T01:14:02.136Z,99801.34
2023-04-13T01:18:17.713Z,99816.34
2023-04-13T01:22:32.325Z,99807.25
2023-04-13T01:27:16.446Z,99799.97
2023-04-13T01:31:30.171Z,99802.78
2023-04-13T01:35:43.705Z,99805.66
2023-04-13T01:40:00.601Z,99807.34
2023-04-13T01:44:27.796Z,99814.56
2023-04-13T01:48:54.395Z,99811.06
2023-04-13T01:53:30.941Z,99804.09
2023-04-13T01:57:47.516Z,99796.03
2023-04-13T02:02:00.793Z,99791.78
2023-04-13T02:06:14.137Z,99790.06
2023-04-13T02:10:28.058Z,99792.88
2023-04-13T02:14:43.030Z,99814.94
2023-04-13T02:19:00.527Z,99822.88
2023-04-13T02:23:18.160Z,99815.94
2023-04-13T02:27:33.164Z,99807.16
2023-04-13T02:31:46.428Z,99815.94
2023-04-13T02:36:00.506Z,99821.25
2023-04-13T02:40:14.245Z,99808.94
2023-04-13T02:44:27.450Z,99815.06
2023-04-13T02:48:43.713Z,99806.34
2023-04-13T02:52:56.409Z,99808.91
2023-04-13T02:57:13.648Z,99813.31
2023-04-13T03:01:29.748Z,99813.38
2023-04-13T03:05:43.721Z,99819.22
2023-04-13T03:10:05.855Z,99820.19
2023-04-13T03:14:24.189Z,99819.41
2023-04-13T03:18:42.116Z,99821.16
2023-04-13T03:22:56.406Z,99820.34
2023-04-13T03:27:09.088Z,99828.97
2023-04-13T03:31:28.269Z,99833.47
2023-04-13T03:35:41.329Z,99844.09
2023-04-13T03:40:01.819Z,99838.88
2023-04-13T03:44:18.989Z,99844.97
2023-04-13T03:48:31.574Z,99850.94
2023-04-13T03:52:46.628Z,99844.84
2023-04-13T03:57:00.824Z,99855.53
2023-04-13T04:01:15.820Z,99860.03
2023-04-13T04:05:34.792Z,99850.97
2023-04-13T04:09:50.576Z,99855.41
2023-04-13T04:14:04.956Z,99859.91
2023-04-13T04:18:18.239Z,99855.56
2023-04-13T04:22:34.983Z,99855.59
2023-04-13T04:26:50.495Z,99854.69
2023-04-13T04:31:05.314Z,99857.34
2023-04-13T04:35:18.523Z,99850.94
2023-04-13T04:39:44.723Z,99861.41
2023-04-13T04:44:03.606Z,99856.88
2023-04-13T04:48:25.206Z,99855.84
2023-04-13T04:52:39.355Z,99857.56
2023-04-13T04:56:52.705Z,99859.06
2023-04-13T05:01:07.180Z,99862.50
2023-04-13T05:05:22.954Z,99859.53
2023-04-13T05:09:37.529Z,99861.28
2023-04-13T05:13:50.420Z,99870.78
2023-04-13T05:18:06.528Z,99875.63
2023-04-13T05:22:19.932Z,99862.22
2023-04-13T05:26:42.228Z,99865.78
2023-04-13T05:31:02.640Z,99867.16
2023-04-13T05:35:16.754Z,99855.81
2023-04-13T05:39:30.146Z,99859.88
2023-04-13T05:43:46.470Z,99850.91
2023-04-13T05:47:59.427Z,99849.44
2023-04-13T05:52:13.171Z,99855.72
2023-04-13T05:56:32.776Z,99846.50
2023-04-13T06:00:45.808Z,99845.72
2023-04-13T06:05:02.503Z,99854.25
2023-04-13T06:09:16.025Z,99852.88
2023-04-13T06:13:32.085Z,99846.28
2023-04-13T06:17:45.988Z,99844.81
2023-04-13T06:21:58.896Z,99850.91
2023-04-13T06:26:12.252Z,99846.13
2023-04-13T06:30:38.990Z,99839.09
2023-04-13T06:34:55.722Z,99832.44
2023-04-13T06:39:10.687Z,99834.66
2023-04-13T06:43:29.585Z,99839.78
2023-04-13T06:48:01.270Z,99829.84
2023-04-13T06:52:16.775Z,99828.44
2023-04-13T06:56:29.422Z,99818.59
2023-04-13T07:00:41.999Z,99820.00
2023-04-13T07:04:54.733Z,99809.44
2023-04-13T07:09:09.187Z,99816.41
2023-04-13T07:13:22.200Z,99819.38
2023-04-13T07:17:35.197Z,99815.44
2023-04-13T07:21:50.258Z,99820.84
2023-04-13T07:26:04.010Z,99817.78
2023-04-13T07:30:16.724Z,99812.34
2023-04-13T07:34:32.126Z,99816.34
2023-04-13T07:38:45.559Z,99809.47
2023-04-13T07:43:01.396Z,99819.44
2023-04-13T07:47:17.037Z,99815.75
2023-04-13T07:51:32.692Z,99816.13
2023-04-13T07:55:45.678Z,99819.69
2023-04-13T07:59:59.296Z,99809.66
2023-04-13T08:04:12.517Z,99809.91
2023-04-13T08:08:27.180Z,99806.22
2023-04-13T08:12:40.056Z,99799.66
2023-04-13T08:16:52.598Z,99785.69
2023-04-13T08:21:12.383Z,99785.25
2023-04-13T08:25:26.909Z,99780.69
2023-04-13T08:29:39.432Z,99769.59
2023-04-13T08:33:52.248Z,99772.75
2023-04-13T08:38:05.162Z,99766.56
2023-04-13T08:42:21.061Z,99764.97
2023-04-13T08:46:37.271Z,99763.03
2023-04-13T08:50:58.728Z,99766.47
2023-04-13T08:55:16.139Z,99747.16
2023-04-13T08:59:31.450Z,99758.47
2023-04-13T09:03:55.257Z,99762.38
2023-04-13T09:08:13.909Z,99754.13
2023-04-13T09:12:32.460Z,99761.44
2023-04-13T09:16:45.293Z,99752.38
2023-04-13T09:21:10.858Z,99754.47
2023-04-13T09:25:28.826Z,99750.13
2023-04-13T09:29:49.964Z,99757.47
2023-04-13T09:34:02.557Z,99760.47
2023-04-13T09:38:16.632Z,99759.50
2023-04-13T09:42:29.170Z,99750.38
2023-04-13T09:46:41.934Z,99741.13
2023-04-13T09:51:01.989Z,99744.00
2023-04-13T09:55:20.915Z,99738.78
2023-04-13T09:59:34.478Z,99753.25
2023-04-13T10:03:47.423Z,99745.06
2023-04-13T10:08:00.219Z,99750.03
2023-04-13T10:12:14.095Z,99747.94
2023-04-13T10:16:41.253Z,99733.88
2023-04-13T10:20:54.935Z,99724.88
2023-04-13T10:25:09.547Z,99730.63
2023-04-13T10:29:31.376Z,99727.59
2023-04-13T10:33:51.202Z,99723.78
2023-04-13T10:38:04.277Z,99719.78
2023-04-13T10:42:18.051Z,99714.84
2023-04-13T10:46:31.699Z,99712.44
2023-04-13T10:50:44.244Z,99702.41
2023-04-13T10:54:57.585Z,99705.41
2023-04-13T10:59:09.980Z,99708.66
2023-04-13T11:03:22.752Z,99694.13
2023-04-13T11:07:38.993Z,99689.50
2023-04-13T11:11:54.331Z,99702.50
2023-04-13T11:16:07.256Z,99692.91
2023-04-13T11:20:20.185Z,99682.59
2023-04-13T11:24:34.389Z,99678.66
2023-04-13T11:28:47.336Z,99669.91
2023-04-13T11:33:01.281Z,99671.25
2023-04-13T11:37:13.733Z,99664.06
2023-04-13T11:41:29.200Z,99661.16
2023-04-13T11:45:43.683Z,99647.84
2023-04-13T11:49:56.453Z,99646.94
2023-04-13T11:54:09.505Z,99639.06
2023-04-13T11:58:22.145Z,99630.38
2023-04-13T12:02:43.158Z,99625.19
2023-04-13T12:07:14.181Z,99633.19
2023-04-13T12:16:05.018Z,99626.44
2023-04-13T12:20:23.528Z,99616.81
2023-04-13T12:24:38.643Z,99606.91
2023-04-13T12:28:59.573Z,99602.00
2023-04-13T12:33:12.571Z,99600.53
2023-04-13T12:37:25.135Z,99589.00
2023-04-13T12:41:37.478Z,99582.19
2023-04-13T12:45:50.043Z,99582.09
2023-04-13T12:50:07.114Z,99573.38
2023-04-13T12:54:19.738Z,99558.97
2023-04-13T12:58:32.394Z,99559.03
2023-04-13T13:02:44.993Z,99557.97
2023-04-13T13:06:57.437Z,99546.09
2023-04-13T13:11:09.878Z,99553.28
2023-04-13T13:15:22.492Z,99542.91
2023-04-13T13:19:34.969Z,99539.78
2023-04-13T13:23:47.361Z,99527.38
2023-04-13T13:32:19.993Z,99526.19
2023-04-13T13:36:32.744Z,99511.09
2023-04-13T13:40:46.636Z,99506.59
2023-04-13T13:44:59.088Z,99486.63
2023-04-13T13:49:12.209Z,99482.19
2023-04-13T13:53:47.131Z,99483.91
2023-04-13T13:57:59.638Z,99474.66
2023-04-13T14:02:12.104Z,99468.50
2023-04-13T14:06:24.480Z,99456.88
2023-04-13T14:10:39.739Z,99451.75
2023-04-13T14:14:52.574Z,99457.50
2023-04-13T14:19:04.991Z,99450.28
2023-04-13T14:23:18.390Z,99442.25
2023-04-13T14:27:30.862Z,99440.41
2023-04-13T14:31:43.334Z,99436.47
2023-04-13T14:35:55.918Z,99425.16
2023-04-13T14:40:22.051Z,99431.72
2023-04-13T14:44:34.984Z,99426.47
2023-04-13T14:48:47.491Z,99419.13
2023-04-13T14:52:59.945Z,99422.41
2023-04-13T14:57:12.374Z,99415.88
2023-04-13T15:01:25.180Z,99415.81
2023-04-13T15:05:50.067Z,99414.50
2023-04-13T15:10:04.788Z,99416.00
2023-04-13T15:14:17.258Z,99404.91
2023-04-13T15:18:29.610Z,99403.72
2023-04-13T15:22:42.106Z,99408.16
2023-04-13T15:26:54.647Z,99415.00
2023-04-13T15:31:06.981Z,99421.47
2023-04-13T15:35:19.462Z,99422.34
2023-04-13T15:39:31.960Z,99418.91
2023-04-13T15:43:44.432Z,99419.50
2023-04-13T15:47:57.538Z,99416.13
2023-04-13T15:52:10.053Z,99412.00
2023-04-13T15:56:22.908Z,99412.59
2023-04-13T16:00:35.647Z,99413.25
2023-04-13T16:04:48.280Z,99416.97
2023-04-13T16:09:01.139Z,99415.28
2023-04-13T16:13:19.790Z,99418.63
2023-04-13T16:17:32.722Z,99416.56
2023-04-13T16:21:51.210Z,99429.56
2023-04-13T16:26:03.842Z,99433.78
2023-04-13T16:30:18.534Z,99433.69
2023-04-13T16:34:31.000Z,99437.13
2023-04-13T16:38:43.368Z,99430.50
2023-04-13T16:42:55.808Z,99437.56
2023-04-13T16:47:08.323Z,99428.41
2023-04-13T16:51:21.569Z,99425.47
2023-04-13T16:55:34.044Z,99433.97
2023-04-13T16:59:47.386Z,99427.31
2023-04-13T17:04:00.026Z,99435.75
2023-04-13T17:08:12.896Z,99426.53
2023-04-13T17:12:26.561Z,99426.97
2023-04-13T17:16:38.997Z,99430.47
2023-04-13T17:20:55.582Z,99424.16
2023-04-13T17:25:08.641Z,99436.28
2023-04-13T17:29:22.092Z,99438.53
2023-04-13T17:33:34.552Z,99446.09
2023-04-13T17:37:47.265Z,99446.84
2023-04-13T17:41:59.686Z,99444.69
2023-04-13T17:46:12.843Z,99453.28
2023-04-13T17:50:25.192Z,99450.94
2023-04-13T17:54:38.173Z,99450.94
2023-04-13T17:58:50.804Z,99445.16
2023-04-13T18:03:05.712Z,99445.97
2023-04-13T18:07:18.691Z,99446.31
2023-04-13T18:11:31.404Z,99447.69
2023-04-13T18:15:47.692Z,99448.75
2023-04-13T18:20:00.309Z,99449.72
2023-04-13T18:24:12.877Z,99458.50
2023-04-13T18:28:25.459Z,99460.09
2023-04-13T18:32:37.981Z,99472.91
2023-04-13T18:36:50.584Z,99471.44
2023-04-13T18:41:04.597Z,99466.09
2023-04-13T18:45:17.509Z,99465.31
2023-04-13T18:49:29.940Z,99474.28
2023-04-13T18:53:42.618Z,99473.72
2023-04-13T18:57:55.752Z,99478.41
2023-04-13T19:02:09.196Z,99484.34
2023-04-13T19:06:21.676Z,99465.72
2023-04-13T19:10:34.255Z,99476.41
2023-04-13T19:14:47.156Z,99473.16
2023-04-13T19:18:59.536Z,99472.53
2023-04-13T19:23:12.217Z,99469.72
2023-04-13T19:27:24.809Z,99460.03
2023-04-13T19:31:38.340Z,99457.75
2023-04-13T19:35:50.856Z,99459.69
2023-04-13T19:40:08.191Z,99452.00
2023-04-13T19:44:20.964Z,99441.63
2023-04-13T19:48:33.494Z,99449.13
2023-04-13T19:52:47.755Z,99438.94
2023-04-13T19:57:00.227Z,99427.91
2023-04-13T20:01:13.906Z,99423.03
2023-04-13T20:05:26.441Z,99417.34
2023-04-13T20:09:39.078Z,99421.13
2023-04-13T20:13:51.794Z,99422.88
2023-04-13T20:18:07.530Z,99402.19
2023-04-13T20:22:22.022Z,99409.59
2023-04-13T20:26:34.907Z,99405.81
2023-04-13T20:30:47.843Z,99392.63
2023-04-13T20:35:00.362Z,99387.97
2023-04-13T20:39:14.000Z,99376.34
2023-04-13T20:43:26.499Z,99388.31
2023-04-13T20:47:42.577Z,99379.38
2023-04-13T20:51:56.107Z,99375.91
2023-04-13T20:56:09.498Z,99367.34
2023-04-13T21:00:23.724Z,99365.00
2023-04-13T21:04:36.648Z,99360.44
2023-04-13T21:08:49.191Z,99354.28
2023-04-13T21:13:02.009Z,99357.94
2023-04-13T21:17:14.424Z,99340.25
2023-04-13T21:21:27.112Z,99343.28
2023-04-13T21:25:40.395Z,99339.13
2023-04-13T21:29:52.812Z,99318.91
2023-04-13T21:34:05.133Z,99307.50
2023-04-13T21:38:17.589Z,99303.44
2023-04-13T21:42:30.052Z,99286.81
2023-04-13T21:46:42.589Z,99286.44
2023-04-13T21:50:55.328Z,99292.84
2023-04-13T21:55:08.109Z,99275.19
2023-04-13T21:59:22.750Z,99269.09
2023-04-13T22:03:39.166Z,99258.25
2023-04-13T22:07:52.188Z,99267.88
2023-04-13T22:12:04.767Z,99267.84
2023-04-13T22:16:17.407Z,99270.59
2023-04-13T22:20:29.710Z,99261.00
2023-04-13T22:24:42.168Z,99268.28
2023-04-13T22:28:54.582Z,99257.63
2023-04-13T22:33:07.269Z,99269.53
2023-04-13T22:37:19.810Z,99269.81
2023-04-13T22:41:32.304Z,99272.16
2023-04-13T22:45:44.740Z,99273.97
2023-04-13T22:50:00.186Z,99270.09
2023-04-13T22:54:12.635Z,99243.59
2023-04-13T22:58:25.229Z,99247.78
2023-04-13T23:02:37.893Z,99250.41
2023-04-13T23:06:50.486Z,99245.97
2023-04-13T23:11:09.784Z,99254.69
2023-04-13T23:15:22.187Z,99272.19
2023-04-13T23:19:35.367Z,99258.38
2023-04-13T23:23:48.163Z,99264.38
2023-04-13T23:28:00.710Z,99277.63
2023-04-13T23:32:13.534Z,99271.63
2023-04-13T23:36:26.812Z,99288.84
2023-04-13T23:40:39.282Z,99286.66
2023-04-13T23:44:51.645Z,99287.69
2023-04-13T23:49:04.082Z,99278.94
2023-04-13T23:53:16.890Z,99286.19
2023-04-13T23:57:34.299Z,99288.13
